Crickhowell, United Kingdom
Current Conditions -  °F | °C
As of 3:50 AM on Thursday 29 Jan 2015 (Local Time) from EGFF Reporting Station
Moderate Rain Moderate Rain  
Wind Chill: 28°   Ceiling: 2600
Heat Index: 39°   Visibility: 6mi
Dew Point: 34°   Wind: 24mph
Humidity: 81%   Direction: 280°W
Pressure: 29.38"   Gusts: NA
Location:  51.86°N, 3.14°W
Report Text: EGFF 290350Z AUTO 28021KT 9999 RA FEW010/// SCT018/// BKN026/// //////TCU 04/01 Q0995
Loading
Personal Weather Stations






























Interactive Weather Map New forecast layout! Learn more

10-Day Weather Forecast

Advertisements
Track Severe Weather on mobile